Enter the Airport ICAO Code

Search by Airport or City

Current Weather

LELN | León Airport

León, Castile and León, Spain

Last Update 22 Minutes Ago

Sky with Few Clouds

Temperature of 22 ºC

Light Winds from East

Temperature

22 ºC

Dew Point Temperature

12 ºC

Relative Humidity

53.25 %

Wind Direction

East (080º, Ranging from 010º to 140º)

Wind Velocity

7 km/h (04 kt)

Gusts

None

Visibility

Greater than 10 Kilometers

Sea Level Pressure

1025 hPa (Hectopascals)

Layers of Clouds

5% to 30% of Sky Covered from 762 mts (2500 ft) Above Ground Level.

METAR LELN 131000Z 08004KT 010V140 9999 FEW025 22/12 Q1025

Weather Forecast

LELN | León Airport

León, Castile and León, Spain

Forecast valid for the next 8 Hours

From now on it is expected:

Clear Sky

Moderate Winds from North

Maximum Temperature

No Data

Minimum Temperature

No Data

TAF LELN 130800Z 1309/1318 01010KT CAVOK